createdAt,value
2022-08-10T00:00:09.486Z,8.00
2022-08-10T00:05:43.900Z,13.37
2022-08-10T00:10:57.747Z,8.63
2022-08-10T00:16:01.326Z,13.70
2022-08-10T00:21:09.202Z,14.83
2022-08-10T00:26:12.406Z,22.40
2022-08-10T00:31:15.650Z,20.70
2022-08-10T00:36:18.786Z,17.30
2022-08-10T00:41:21.960Z,18.20
2022-08-10T00:46:27.286Z,21.87
2022-08-10T00:51:40.334Z,13.33
2022-08-10T00:57:18.106Z,13.57
2022-08-10T01:02:15.525Z,10.60
2022-08-10T01:07:39.644Z,17.17
2022-08-10T01:13:07.347Z,14.13
2022-08-10T01:18:22.386Z,12.10
2022-08-10T01:23:37.666Z,11.70
2022-08-10T01:29:01.866Z,15.27
2022-08-10T01:34:12.486Z,20.30
2022-08-10T01:39:30.982Z,15.10
2022-08-10T01:44:41.027Z,16.80
2022-08-10T01:49:46.866Z,12.73
2022-08-10T01:54:52.846Z,13.30
2022-08-10T02:00:02.499Z,13.07
2022-08-10T02:05:08.357Z,12.17
2022-08-10T02:10:14.565Z,11.93
2022-08-10T02:15:21.746Z,11.90
2022-08-10T02:20:31.464Z,10.27
2022-08-10T02:25:42.567Z,12.50
2022-08-10T02:30:47.887Z,11.90
2022-08-10T02:35:55.826Z,12.90
2022-08-10T02:42:18.085Z,11.03
2022-08-10T02:46:35.666Z,15.00
2022-08-10T02:52:06.856Z,13.57
2022-08-10T02:57:20.245Z,11.43
2022-08-10T03:02:31.895Z,13.77
2022-08-10T03:07:43.598Z,15.77
2022-08-10T03:12:52.139Z,10.50
2022-08-10T03:17:58.781Z,10.70
2022-08-10T03:23:06.251Z,11.77
2022-08-10T03:28:10.450Z,12.40
2022-08-10T03:33:23.994Z,11.53
2022-08-10T03:38:27.246Z,15.10
2022-08-10T03:43:31.663Z,13.73
2022-08-10T03:48:47.147Z,15.07
2022-08-10T03:54:05.854Z,19.97
2022-08-10T03:59:17.047Z,16.73
2022-08-10T04:04:24.755Z,22.37
2022-08-10T04:09:43.186Z,21.63
2022-08-10T04:14:54.396Z,26.73
2022-08-10T04:20:00.051Z,26.47
2022-08-10T04:25:05.685Z,32.80
2022-08-10T04:30:09.666Z,29.20
2022-08-10T04:35:15.706Z,32.83
2022-08-10T04:40:29.545Z,29.77
2022-08-10T04:45:49.283Z,34.57
2022-08-10T04:50:55.406Z,33.97
2022-08-10T04:56:03.286Z,29.90
2022-08-10T05:01:06.441Z,35.33
2022-08-10T05:06:09.746Z,29.50
2022-08-10T05:11:12.907Z,28.40
2022-08-10T05:16:31.803Z,25.00
2022-08-10T05:22:01.440Z,26.90
2022-08-10T05:27:08.366Z,24.67
2022-08-10T05:32:14.047Z,32.13
2022-08-10T05:38:13.312Z,24.90
2022-08-10T05:42:42.263Z,24.57
2022-08-10T05:48:53.977Z,22.10
2022-08-10T05:54:01.837Z,22.43
2022-08-10T05:58:31.847Z,21.57
2022-08-10T06:03:40.233Z,22.80
2022-08-10T06:08:46.805Z,19.13
2022-08-10T06:14:13.172Z,17.37
2022-08-10T06:19:18.206Z,17.03
2022-08-10T06:24:25.514Z,12.77
2022-08-10T06:30:20.767Z,15.18
2022-08-10T06:35:58.260Z,11.57
2022-08-10T06:42:14.451Z,10.18
2022-08-10T06:59:21.906Z,8.48
2022-08-10T07:04:35.888Z,7.40
2022-08-10T07:09:42.054Z,11.05
2022-08-10T07:14:47.246Z,8.93
2022-08-10T07:19:55.145Z,7.75
2022-08-10T07:24:59.509Z,8.02
2022-08-10T07:30:02.926Z,6.25
2022-08-10T07:35:07.586Z,9.63
2022-08-10T07:40:13.487Z,6.38
2022-08-10T07:45:16.867Z,9.32
2022-08-10T07:50:26.015Z,5.80
2022-08-10T07:56:04.867Z,6.68
2022-08-10T08:00:58.439Z,6.68
2022-08-10T08:06:05.381Z,5.63
2022-08-10T08:11:25.745Z,3.88
2022-08-10T08:16:32.044Z,4.15
2022-08-10T08:24:14.785Z,4.45
2022-08-10T08:27:05.970Z,4.05
2022-08-10T08:32:10.328Z,6.38
2022-08-10T08:38:29.686Z,3.72
2022-08-10T08:43:01.359Z,2.95
2022-08-10T08:48:36.466Z,2.33
2022-08-10T08:54:02.526Z,1.60
2022-08-10T08:59:31.858Z,2.75
2022-08-10T09:04:52.835Z,5.75
2022-08-10T09:10:09.154Z,5.15
2022-08-10T09:15:41.047Z,4.45
2022-08-10T09:20:54.438Z,2.70
2022-08-10T09:26:08.207Z,2.55
2022-08-10T09:31:22.331Z,3.22
2022-08-10T09:36:49.932Z,1.80
2022-08-10T09:42:14.632Z,0.85
2022-08-10T09:48:00.013Z,1.45
2022-08-10T09:53:38.081Z,2.28
2022-08-10T09:59:26.759Z,1.55
2022-08-10T10:05:06.897Z,1.42
2022-08-10T10:10:16.443Z,2.90
2022-08-10T10:15:36.554Z,2.60
2022-08-10T10:21:24.161Z,1.88
2022-08-10T10:27:16.555Z,2.42
2022-08-10T10:32:47.996Z,1.77
2022-08-10T10:38:09.590Z,1.42
2022-08-10T10:43:22.815Z,1.67
2022-08-10T10:48:29.365Z,0.98
2022-08-10T10:54:10.074Z,1.10
2022-08-10T10:59:53.621Z,2.13
2022-08-10T11:05:23.981Z,1.48
2022-08-10T11:10:46.481Z,2.85
2022-08-10T11:16:13.926Z,1.88
2022-08-10T11:21:30.923Z,1.67
2022-08-10T11:27:21.662Z,2.88
2022-08-10T11:32:33.127Z,2.70
2022-08-10T11:38:29.591Z,1.83
2022-08-10T11:43:24.424Z,2.47
2022-08-10T11:48:53.318Z,1.80
2022-08-10T11:54:05.082Z,2.80
2022-08-10T11:59:27.746Z,1.50
2022-08-10T12:04:32.426Z,1.88
2022-08-10T12:10:10.939Z,2.13
2022-08-10T12:15:09.561Z,2.55
2022-08-10T12:20:25.230Z,2.30
2022-08-10T12:25:57.630Z,1.30
2022-08-10T12:31:04.046Z,3.88
2022-08-10T12:36:22.477Z,2.00
2022-08-10T12:41:44.504Z,2.08
2022-08-10T12:47:14.038Z,1.92
2022-08-10T12:52:35.507Z,1.80
2022-08-10T12:57:40.826Z,1.88
2022-08-10T13:02:48.769Z,1.77
2022-08-10T13:08:27.625Z,1.50
2022-08-10T13:13:40.486Z,2.10
2022-08-10T13:18:45.648Z,3.35
2022-08-10T13:24:15.626Z,2.65
2022-08-10T13:29:24.397Z,2.95
2022-08-10T13:34:43.132Z,2.63
2022-08-10T13:39:59.856Z,0.93
2022-08-10T13:45:12.988Z,2.55
2022-08-10T13:50:33.499Z,1.98
2022-08-10T13:55:54.909Z,2.03
2022-08-10T14:01:02.279Z,2.95
2022-08-10T14:06:07.796Z,4.45
2022-08-10T14:11:17.953Z,3.05
2022-08-10T14:16:22.769Z,2.92
2022-08-10T14:21:26.927Z,2.90
2022-08-10T14:26:31.927Z,5.63
2022-08-10T14:31:38.117Z,1.35
2022-08-10T14:36:48.586Z,3.75
2022-08-10T14:42:05.696Z,1.40
2022-08-10T14:47:52.690Z,1.48
2022-08-10T14:52:44.470Z,1.50
2022-08-10T14:58:20.294Z,3.10
2022-08-10T15:03:59.160Z,1.77
2022-08-10T15:08:47.068Z,4.22
2022-08-10T15:14:40.924Z,2.70
2022-08-10T15:20:01.315Z,1.63
2022-08-10T15:25:02.847Z,2.20
2022-08-10T15:30:11.679Z,4.93
2022-08-10T15:35:36.466Z,2.45
2022-08-10T15:40:51.894Z,2.70
2022-08-10T15:46:09.717Z,1.73
2022-08-10T15:51:28.084Z,3.75
2022-08-10T15:56:50.184Z,1.80
2022-08-10T16:02:14.242Z,2.00
2022-08-10T16:07:46.242Z,2.45
2022-08-10T16:12:59.800Z,2.20
2022-08-10T16:18:13.024Z,2.40
2022-08-10T16:23:20.820Z,1.70
2022-08-10T16:28:33.308Z,1.90
2022-08-10T16:33:54.265Z,2.15
2022-08-10T16:38:59.448Z,4.13
2022-08-10T16:44:04.056Z,1.85
2022-08-10T16:49:09.545Z,2.58
2022-08-10T16:54:15.186Z,1.60
2022-08-10T16:59:24.345Z,3.75
2022-08-10T17:04:29.586Z,4.40
2022-08-10T17:09:36.626Z,3.30
2022-08-10T17:14:42.556Z,2.85
2022-08-10T17:19:46.506Z,9.02
2022-08-10T17:25:18.431Z,2.88
2022-08-10T17:30:34.336Z,5.00
2022-08-10T17:35:42.983Z,2.67
2022-08-10T17:41:04.189Z,6.18
2022-08-10T17:46:09.666Z,4.82
2022-08-10T17:51:15.690Z,4.30
2022-08-10T17:56:21.835Z,3.38
2022-08-10T18:01:42.075Z,3.88
2022-08-10T18:07:00.188Z,2.78
2022-08-10T18:12:18.451Z,3.35
2022-08-10T18:17:26.071Z,5.55
2022-08-10T18:22:31.585Z,10.57
2022-08-10T18:28:01.177Z,4.55
2022-08-10T18:33:03.910Z,7.22
2022-08-10T18:38:08.667Z,3.88
2022-08-10T18:44:10.601Z,10.32
2022-08-10T18:48:50.197Z,11.02
2022-08-10T18:53:59.369Z,3.75
2022-08-10T18:59:32.387Z,5.80
2022-08-10T19:04:41.566Z,13.55
2022-08-10T19:09:53.503Z,12.38
2022-08-10T19:15:20.507Z,6.45
2022-08-10T19:20:56.386Z,9.73
2022-08-10T19:26:42.072Z,6.72
2022-08-10T19:32:20.388Z,8.73
2022-08-10T19:37:34.081Z,3.95
2022-08-10T19:42:47.666Z,8.38
2022-08-10T19:48:09.746Z,7.15
2022-08-10T19:53:27.609Z,5.60
2022-08-10T19:58:41.958Z,5.07
2022-08-10T20:04:00.468Z,5.18
2022-08-10T20:09:26.908Z,4.80
2022-08-10T20:14:34.653Z,6.72
2022-08-10T20:19:52.898Z,6.07
2022-08-10T20:25:05.194Z,4.68
2022-08-10T20:30:11.330Z,6.82
2022-08-10T20:35:46.347Z,9.25
2022-08-10T20:41:04.090Z,8.02
2022-08-10T20:46:34.428Z,6.75
2022-08-10T20:51:58.609Z,6.63
2022-08-10T20:57:55.309Z,4.95
2022-08-10T21:03:42.807Z,9.10
2022-08-10T21:09:08.814Z,6.93
2022-08-10T21:14:51.592Z,6.20
2022-08-10T21:20:16.443Z,6.57
2022-08-10T21:25:41.793Z,8.35
2022-08-10T21:31:05.767Z,16.55
2022-08-10T21:36:24.411Z,9.90
2022-08-10T21:42:07.552Z,9.07
2022-08-10T21:48:29.938Z,8.82
2022-08-10T21:54:19.203Z,8.57
2022-08-10T21:59:56.452Z,5.35
2022-08-10T22:05:22.334Z,10.17
2022-08-10T22:10:48.315Z,10.97
2022-08-10T22:16:15.529Z,6.20
2022-08-10T22:22:01.059Z,11.17
2022-08-10T22:27:57.628Z,5.90
2022-08-10T22:33:54.706Z,5.00
2022-08-10T22:40:11.630Z,5.10
2022-08-10T22:45:19.273Z,6.83
2022-08-10T22:50:26.760Z,7.10
2022-08-10T22:55:56.367Z,4.70
2022-08-10T23:01:15.667Z,6.10
2022-08-10T23:06:22.113Z,6.13
2022-08-10T23:11:36.235Z,6.00
2022-08-10T23:17:11.834Z,7.90
2022-08-10T23:22:20.093Z,5.83
2022-08-10T23:27:38.894Z,5.83
2022-08-10T23:32:50.460Z,4.63
2022-08-10T23:37:57.233Z,5.80
2022-08-10T23:43:00.974Z,4.93
2022-08-10T23:48:05.233Z,6.67
2022-08-10T23:53:13.456Z,5.90
2022-08-10T23:58:33.555Z,8.77
